Time;durP1;ratioP1;P1;durP2;ratioP2;P2;SDS_P1;SDS_P2;PMS_P1;PMS_P2;Temp;Humidity;BMP_temperature;BMP_pressure;BME280_temperature;BME280_humidity;BME280_pressure;Samples;Min_cycle;Max_cycle;Signal;HPM_P1;HPM_P2
2022/10/19 00:01:19;;;;;;;1.30;1.20;;;;;;;;;;4492945;28;20488;-59
2022/10/19 00:03:30;;;;;;;1.63;1.42;;;;;;;;;;4492284;28;21326;-59
2022/10/19 00:05:41;;;;;;;1.40;1.30;;;;;;;;;;4490839;28;20493;-60
2022/10/19 00:07:51;;;;;;;1.77;1.23;;;;;;;;;;4493268;28;20030;-61
2022/10/19 00:10:03;;;;;;;1.60;1.00;;;;;;;;;;4491934;28;20108;-60
2022/10/19 00:12:13;;;;;;;1.30;1.20;;;;;;;;;;4492473;28;20593;-60
2022/10/19 00:14:24;;;;;;;1.23;1.10;;;;;;;;;;4491701;28;20046;-60
2022/10/19 00:16:36;;;;;;;1.40;1.00;;;;;;;;;;4479867;28;20046;-59
2022/10/19 00:18:46;;;;;;;1.48;1.10;;;;;;;;;;4493242;28;20038;-60
2022/10/19 00:21:05;;;;;;;1.13;1.02;;;;;;;;;;4491837;28;20042;-61
2022/10/19 00:23:16;;;;;;;0.82;0.82;;;;;;;;;;4496309;28;20092;-61
2022/10/19 00:25:26;;;;;;;1.33;1.00;;;;;;;;;;4490896;28;31882;-59
2022/10/19 00:27:37;;;;;;;1.02;0.90;;;;;;;;;;4491546;28;20034;-60
2022/10/19 00:29:48;;;;;;;1.10;0.90;;;;;;;;;;4500024;28;20097;-60
2022/10/19 00:31:58;;;;;;;1.10;1.00;;;;;;;;;;4491806;28;20037;-59
2022/10/19 00:34:09;;;;;;;2.25;1.20;;;;;;;;;;4492614;28;20164;-60
2022/10/19 00:36:27;;;;;;;1.70;1.10;;;;;;;;;;4491353;28;20423;-60
2022/10/19 00:38:40;;;;;;;1.75;0.90;;;;;;;;;;4491723;28;20035;-60
2022/10/19 00:40:50;;;;;;;1.00;0.90;;;;;;;;;;4489833;28;20600;-60
2022/10/19 00:43:01;;;;;;;1.65;1.10;;;;;;;;;;4492319;28;20038;-59
2022/10/19 00:45:14;;;;;;;1.70;1.15;;;;;;;;;;4493811;28;20118;-60
2022/10/19 00:47:25;;;;;;;1.67;1.10;;;;;;;;;;4495036;28;20045;-59
2022/10/19 00:49:39;;;;;;;1.80;1.10;;;;;;;;;;4490919;28;20037;-60
2022/10/19 00:51:52;;;;;;;1.00;0.90;;;;;;;;;;4492548;28;20038;-59
2022/10/19 00:54:04;;;;;;;1.60;0.90;;;;;;;;;;4495703;28;20034;-59
2022/10/19 00:56:16;;;;;;;1.58;1.10;;;;;;;;;;4494617;28;20030;-59
2022/10/19 00:58:26;;;;;;;1.20;1.05;;;;;;;;;;4492248;28;20116;-59
2022/10/19 01:00:37;;;;;;;1.88;1.40;;;;;;;;;;4490925;28;38865;-60
2022/10/19 01:02:47;;;;;;;1.90;1.17;;;;;;;;;;4492308;28;20070;-60
2022/10/19 01:04:58;;;;;;;1.58;1.30;;;;;;;;;;4491722;28;32426;-60
2022/10/19 01:07:09;;;;;;;2.33;1.10;;;;;;;;;;4492395;28;20424;-60
2022/10/19 01:09:20;;;;;;;1.45;1.15;;;;;;;;;;4494992;28;20038;-60
2022/10/19 01:11:51;;;;;;;1.17;1.05;;;;;;;;;;4492740;28;20026;-60
2022/10/19 01:14:21;;;;;;;1.25;1.10;;;;;;;;;;4495440;28;20034;-60
2022/10/19 01:16:38;;;;;;;1.17;1.02;;;;;;;;;;4500866;28;20042;-60
2022/10/19 01:19:20;;;;;;;1.38;1.10;;;;;;;;;;4491387;28;20117;-60
2022/10/19 01:21:48;;;;;;;1.65;1.20;;;;;;;;;;4438138;28;20073;-60
2022/10/19 01:24:24;;;;;;;1.90;1.10;;;;;;;;;;4491438;28;20587;-60
2022/10/19 01:27:04;;;;;;;1.52;1.05;;;;;;;;;;4496630;28;20045;-60
2022/10/19 01:29:48;;;;;;;1.10;1.00;;;;;;;;;;4464260;28;20055;-60
2022/10/19 01:32:06;;;;;;;1.17;1.00;;;;;;;;;;4490658;28;20036;-60
2022/10/19 01:34:24;;;;;;;1.50;1.08;;;;;;;;;;4491275;28;20046;-60
2022/10/19 01:37:01;;;;;;;1.20;1.10;;;;;;;;;;4491267;28;20085;-60
2022/10/19 01:39:15;;;;;;;1.42;0.95;;;;;;;;;;4490694;28;20034;-60
2022/10/19 01:41:30;;;;;;;1.05;1.00;;;;;;;;;;4491741;28;20061;-59
2022/10/19 01:43:55;;;;;;;1.20;1.00;;;;;;;;;;4489624;28;20050;-60
2022/10/19 01:46:09;;;;;;;1.35;1.10;;;;;;;;;;4491410;28;20580;-59
2022/10/19 01:48:22;;;;;;;1.83;0.90;;;;;;;;;;4490349;28;20073;-60
2022/10/19 01:50:38;;;;;;;1.50;1.20;;;;;;;;;;4492512;28;20623;-60
2022/10/19 01:52:49;;;;;;;1.55;1.10;;;;;;;;;;4490054;28;20853;-59
2022/10/19 01:55:01;;;;;;;1.45;0.93;;;;;;;;;;4491848;28;20034;-60
2022/10/19 01:57:13;;;;;;;1.10;1.00;;;;;;;;;;4493755;28;40505;-60
2022/10/19 01:59:25;;;;;;;1.20;0.95;;;;;;;;;;4504705;28;20096;-60
2022/10/19 02:01:38;;;;;;;0.80;0.80;;;;;;;;;;4492013;28;20084;-60
2022/10/19 02:03:50;;;;;;;1.90;0.93;;;;;;;;;;4488949;28;20894;-60
2022/10/19 02:06:03;;;;;;;1.10;1.00;;;;;;;;;;4491223;28;20137;-60
2022/10/19 02:08:21;;;;;;;1.15;0.85;;;;;;;;;;4498807;28;20022;-60
2022/10/19 02:10:33;;;;;;;0.88;0.88;;;;;;;;;;4479373;28;20043;-60
2022/10/19 02:12:44;;;;;;;1.13;1.00;;;;;;;;;;4496394;28;20101;-60
2022/10/19 02:14:57;;;;;;;1.50;0.90;;;;;;;;;;4475655;28;23746;-60
2022/10/19 02:17:10;;;;;;;1.60;1.02;;;;;;;;;;4488902;28;20065;-60
2022/10/19 02:19:21;;;;;;;1.02;0.80;;;;;;;;;;4495018;28;20134;-60
2022/10/19 02:21:31;;;;;;;1.30;0.93;;;;;;;;;;4492128;28;39010;-60
2022/10/19 02:23:42;;;;;;;1.33;1.00;;;;;;;;;;4492401;28;20069;-60
2022/10/19 02:25:53;;;;;;;1.05;0.95;;;;;;;;;;4488929;28;20033;-60
2022/10/19 02:28:04;;;;;;;1.50;1.15;;;;;;;;;;4490826;28;38450;-60
2022/10/19 02:30:16;;;;;;;1.85;1.00;;;;;;;;;;4488858;28;42666;-60
2022/10/19 02:32:26;;;;;;;1.30;1.00;;;;;;;;;;4495507;28;20039;-60
2022/10/19 02:34:38;;;;;;;1.10;1.00;;;;;;;;;;4490156;28;20066;-60
2022/10/19 02:36:48;;;;;;;1.17;1.08;;;;;;;;;;4490818;28;37718;-60
2022/10/19 02:38:59;;;;;;;0.73;0.70;;;;;;;;;;4492842;28;40341;-60
2022/10/19 02:41:23;;;;;;;1.20;0.95;;;;;;;;;;4494068;28;37246;-60
2022/10/19 02:43:37;;;;;;;1.02;0.90;;;;;;;;;;4495596;28;20187;-60
2022/10/19 02:45:59;;;;;;;1.48;0.90;;;;;;;;;;4494506;28;20042;-60
2022/10/19 02:48:13;;;;;;;0.98;0.90;;;;;;;;;;4495623;28;20030;-60
2022/10/19 02:50:23;;;;;;;1.40;1.10;;;;;;;;;;4501257;28;20036;-59
2022/10/19 02:52:38;;;;;;;1.00;0.90;;;;;;;;;;4491615;28;31547;-60
2022/10/19 02:54:48;;;;;;;1.33;1.10;;;;;;;;;;4493431;28;20042;-60
2022/10/19 02:56:59;;;;;;;1.08;0.85;;;;;;;;;;4492966;28;45200;-60
2022/10/19 02:59:10;;;;;;;1.13;0.80;;;;;;;;;;4494204;28;20040;-60
2022/10/19 03:01:20;;;;;;;2.30;0.80;;;;;;;;;;4495364;28;20110;-60
2022/10/19 03:03:30;;;;;;;0.80;0.80;;;;;;;;;;4493137;28;20030;-60
2022/10/19 03:05:41;;;;;;;1.05;0.85;;;;;;;;;;4493476;28;20090;-60
2022/10/19 03:07:51;;;;;;;1.10;0.80;;;;;;;;;;4491329;28;20058;-60
2022/10/19 03:10:02;;;;;;;0.80;0.70;;;;;;;;;;4493163;28;20045;-60
2022/10/19 03:12:13;;;;;;;0.80;0.70;;;;;;;;;;4495405;28;20514;-60
2022/10/19 03:14:24;;;;;;;0.70;0.70;;;;;;;;;;4495937;28;20038;-60
2022/10/19 03:16:34;;;;;;;0.70;0.70;;;;;;;;;;4492849;28;30395;-59
2022/10/19 03:18:47;;;;;;;1.15;0.70;;;;;;;;;;4492679;28;20066;-60
2022/10/19 03:21:06;;;;;;;1.15;0.80;;;;;;;;;;4502191;28;20044;-60
2022/10/19 03:23:17;;;;;;;0.77;0.60;;;;;;;;;;4484646;28;20089;-60
2022/10/19 03:25:27;;;;;;;0.80;0.80;;;;;;;;;;4491392;28;27606;-60
2022/10/19 03:27:37;;;;;;;1.13;0.80;;;;;;;;;;4491759;28;35866;-60
2022/10/19 03:29:48;;;;;;;1.15;0.70;;;;;;;;;;4490925;28;40232;-60
2022/10/19 03:31:58;;;;;;;1.10;0.73;;;;;;;;;;4492984;28;20039;-60
2022/10/19 03:34:09;;;;;;;0.80;0.70;;;;;;;;;;4492369;28;29001;-60
2022/10/19 03:36:19;;;;;;;1.35;0.70;;;;;;;;;;4492764;28;40644;-60
2022/10/19 03:38:29;;;;;;;1.00;0.80;;;;;;;;;;4492872;28;20049;-60
2022/10/19 03:40:40;;;;;;;1.13;1.02;;;;;;;;;;4491683;28;25769;-60
2022/10/19 03:42:50;;;;;;;1.20;0.80;;;;;;;;;;4490854;28;40539;-60
2022/10/19 03:45:01;;;;;;;0.85;0.80;;;;;;;;;;4494081;28;21025;-60
2022/10/19 03:47:12;;;;;;;0.85;0.80;;;;;;;;;;4498490;28;20148;-60
2022/10/19 03:49:22;;;;;;;0.70;0.70;;;;;;;;;;4492218;28;20035;-59
2022/10/19 03:51:33;;;;;;;0.93;0.73;;;;;;;;;;4493678;28;20022;-60
2022/10/19 03:53:44;;;;;;;2.08;1.45;;;;;;;;;;4490596;28;20622;-60
2022/10/19 03:56:00;;;;;;;1.70;1.40;;;;;;;;;;4492912;28;20124;-59
2022/10/19 03:58:10;;;;;;;2.53;1.67;;;;;;;;;;4500783;28;20755;-60
2022/10/19 04:00:20;;;;;;;2.55;2.22;;;;;;;;;;4492713;28;30650;-60
2022/10/19 04:02:31;;;;;;;2.38;2.17;;;;;;;;;;4492895;28;23376;-60
2022/10/19 04:04:41;;;;;;;1.70;1.50;;;;;;;;;;4493263;28;20092;-60
2022/10/19 04:06:52;;;;;;;2.03;1.30;;;;;;;;;;4491044;28;20046;-60
2022/10/19 04:09:04;;;;;;;1.65;1.30;;;;;;;;;;4492503;28;20029;-60
2022/10/19 04:11:15;;;;;;;1.10;0.98;;;;;;;;;;4491348;28;21056;-60
2022/10/19 04:13:26;;;;;;;1.00;0.90;;;;;;;;;;4490547;28;20037;-60
2022/10/19 04:15:36;;;;;;;1.00;0.73;;;;;;;;;;4493320;28;20065;-60
2022/10/19 04:17:47;;;;;;;0.82;0.82;;;;;;;;;;4491267;28;20026;-60
2022/10/19 04:19:57;;;;;;;0.98;0.75;;;;;;;;;;4492570;28;20481;-60
2022/10/19 04:22:07;;;;;;;1.02;0.70;;;;;;;;;;4499772;28;23781;-60
2022/10/19 04:24:18;;;;;;;1.20;0.90;;;;;;;;;;4491327;28;20043;-60
2022/10/19 04:26:29;;;;;;;0.70;0.70;;;;;;;;;;4492173;28;20069;-60
2022/10/19 04:28:39;;;;;;;0.60;0.60;;;;;;;;;;4492091;28;20033;-59
2022/10/19 04:30:49;;;;;;;0.82;0.70;;;;;;;;;;4492189;28;20077;-60
2022/10/19 04:33:00;;;;;;;0.80;0.63;;;;;;;;;;4492582;28;33943;-60
2022/10/19 04:35:10;;;;;;;1.13;0.70;;;;;;;;;;4492493;28;32513;-60
2022/10/19 04:37:20;;;;;;;0.60;0.60;;;;;;;;;;4492858;28;20042;-61
2022/10/19 04:39:31;;;;;;;0.80;0.70;;;;;;;;;;4492250;28;20495;-60
2022/10/19 04:41:41;;;;;;;0.90;0.80;;;;;;;;;;4494835;28;20030;-60
2022/10/19 04:43:57;;;;;;;0.93;0.73;;;;;;;;;;4491968;28;29010;-60
2022/10/19 04:46:13;;;;;;;1.00;0.90;;;;;;;;;;4491989;28;20138;-60
2022/10/19 04:48:23;;;;;;;1.08;0.90;;;;;;;;;;4490346;28;20069;-60
2022/10/19 04:50:34;;;;;;;1.77;0.80;;;;;;;;;;4490904;28;20045;-60
2022/10/19 04:52:44;;;;;;;1.17;0.90;;;;;;;;;;4492495;28;40234;-60
2022/10/19 04:54:54;;;;;;;1.60;1.00;;;;;;;;;;4499258;28;20030;-60
2022/10/19 04:57:05;;;;;;;1.27;0.90;;;;;;;;;;4490757;28;36480;-60
2022/10/19 04:59:15;;;;;;;0.85;0.82;;;;;;;;;;4491210;28;20038;-60
2022/10/19 05:01:27;;;;;;;1.05;0.80;;;;;;;;;;4491565;28;20460;-60
2022/10/19 05:03:38;;;;;;;1.25;0.90;;;;;;;;;;4491242;28;20133;-60
2022/10/19 05:05:49;;;;;;;0.90;0.77;;;;;;;;;;4490505;28;20047;-60
2022/10/19 05:07:59;;;;;;;0.60;0.60;;;;;;;;;;4491971;28;20033;-60
2022/10/19 05:10:10;;;;;;;0.57;0.57;;;;;;;;;;4509481;28;36067;-60
2022/10/19 05:12:20;;;;;;;0.55;0.55;;;;;;;;;;4493051;28;20052;-60
2022/10/19 05:14:32;;;;;;;0.95;0.70;;;;;;;;;;4492354;28;33964;-59
2022/10/19 05:16:43;;;;;;;0.50;0.50;;;;;;;;;;4493114;28;20038;-60
2022/10/19 05:18:55;;;;;;;0.60;0.60;;;;;;;;;;4493043;28;40210;-61
2022/10/19 05:21:08;;;;;;;0.95;0.80;;;;;;;;;;4491975;28;20035;-60
2022/10/19 05:23:18;;;;;;;0.68;0.68;;;;;;;;;;4499835;28;20693;-59
2022/10/19 05:25:28;;;;;;;1.50;0.93;;;;;;;;;;4493468;28;35882;-60
2022/10/19 05:27:39;;;;;;;1.02;0.90;;;;;;;;;;4491232;28;20034;-60
2022/10/19 05:29:49;;;;;;;1.33;1.00;;;;;;;;;;4493946;28;37188;-60
2022/10/19 05:32:00;;;;;;;0.82;0.82;;;;;;;;;;4492758;28;32519;-60
2022/10/19 05:34:10;;;;;;;1.45;1.00;;;;;;;;;;4492150;28;30664;-60
2022/10/19 05:36:33;;;;;;;1.20;0.70;;;;;;;;;;4491682;28;20043;-60
2022/10/19 05:38:45;;;;;;;1.33;1.05;;;;;;;;;;4493003;28;20034;-59
2022/10/19 05:40:55;;;;;;;2.00;1.10;;;;;;;;;;4499348;28;20104;-60
2022/10/19 05:43:06;;;;;;;1.45;1.10;;;;;;;;;;4491004;28;21872;-60
2022/10/19 05:45:16;;;;;;;1.40;1.20;;;;;;;;;;4492701;28;20030;-60
2022/10/19 05:47:26;;;;;;;1.77;1.20;;;;;;;;;;4476604;28;20786;-60
2022/10/19 05:49:37;;;;;;;1.45;1.00;;;;;;;;;;4490906;28;29878;-60
2022/10/19 05:51:48;;;;;;;1.40;1.10;;;;;;;;;;4490786;28;20034;-60
2022/10/19 05:53:59;;;;;;;1.70;1.10;;;;;;;;;;4490749;28;20133;-60
2022/10/19 05:56:22;;;;;;;1.45;0.98;;;;;;;;;;4489553;28;22781;-59
2022/10/19 05:58:33;;;;;;;2.10;1.00;;;;;;;;;;4498627;28;20907;-60
2022/10/19 06:00:50;;;;;;;1.33;0.90;;;;;;;;;;4492377;28;20046;-60
2022/10/19 06:03:00;;;;;;;1.60;1.00;;;;;;;;;;4499497;28;20038;-60
2022/10/19 06:05:10;;;;;;;1.27;1.02;;;;;;;;;;4491112;28;33066;-60
2022/10/19 06:07:21;;;;;;;1.10;1.00;;;;;;;;;;4492643;28;20038;-59
2022/10/19 06:09:34;;;;;;;0.85;0.82;;;;;;;;;;4493476;28;20038;-60
2022/10/19 06:11:46;;;;;;;1.20;1.00;;;;;;;;;;4490001;28;20056;-60
2022/10/19 06:13:58;;;;;;;1.15;0.90;;;;;;;;;;4490330;28;20081;-60
2022/10/19 06:16:10;;;;;;;1.10;1.00;;;;;;;;;;4499801;28;20601;-60
2022/10/19 06:18:24;;;;;;;1.52;0.90;;;;;;;;;;4491122;28;20042;-60
2022/10/19 06:20:36;;;;;;;1.85;1.20;;;;;;;;;;4490436;28;20090;-60
2022/10/19 06:22:46;;;;;;;1.77;1.20;;;;;;;;;;4491292;28;20030;-60
2022/10/19 06:24:57;;;;;;;1.10;0.90;;;;;;;;;;4491511;28;20753;-60
2022/10/19 06:27:07;;;;;;;1.40;1.00;;;;;;;;;;4490953;28;20030;-60
2022/10/19 06:29:17;;;;;;;1.90;1.10;;;;;;;;;;4491915;28;32922;-60
2022/10/19 06:31:29;;;;;;;1.52;1.20;;;;;;;;;;4489402;28;22709;-60
2022/10/19 06:33:41;;;;;;;2.85;1.33;;;;;;;;;;4496324;28;20028;-60
2022/10/19 06:35:52;;;;;;;1.20;1.10;;;;;;;;;;4498914;28;20042;-60
2022/10/19 06:38:03;;;;;;;1.50;1.40;;;;;;;;;;4491627;28;20030;-60
2022/10/19 06:40:13;;;;;;;2.55;1.40;;;;;;;;;;4495093;28;20027;-60
2022/10/19 06:42:23;;;;;;;2.00;1.40;;;;;;;;;;4493331;28;20603;-60
2022/10/19 06:44:34;;;;;;;1.98;1.30;;;;;;;;;;4491125;28;22038;-60
2022/10/19 06:46:44;;;;;;;1.80;1.30;;;;;;;;;;4495867;28;20044;-61
2022/10/19 06:48:56;;;;;;;1.88;1.35;;;;;;;;;;4491545;28;20022;-60
2022/10/19 06:51:07;;;;;;;1.50;1.40;;;;;;;;;;4490843;28;20094;-61
2022/10/19 06:53:18;;;;;;;2.00;1.40;;;;;;;;;;4473342;28;20049;-60
2022/10/19 06:55:28;;;;;;;2.03;1.60;;;;;;;;;;4491079;28;20036;-60
2022/10/19 06:57:38;;;;;;;1.83;1.50;;;;;;;;;;4489703;28;20046;-61
2022/10/19 06:59:49;;;;;;;2.83;1.52;;;;;;;;;;4491568;28;20038;-63
2022/10/19 07:01:59;;;;;;;2.22;1.60;;;;;;;;;;4490450;28;23049;-62
2022/10/19 07:04:10;;;;;;;1.70;1.40;;;;;;;;;;4482847;28;20046;-62
2022/10/19 07:06:22;;;;;;;2.38;1.80;;;;;;;;;;4491686;28;20077;-61
2022/10/19 07:08:34;;;;;;;2.03;1.50;;;;;;;;;;4492553;28;20030;-60
2022/10/19 07:10:58;;;;;;;2.90;1.55;;;;;;;;;;4491217;28;21005;-65
2022/10/19 07:13:08;;;;;;;1.85;1.50;;;;;;;;;;4489236;28;20049;-61
2022/10/19 07:15:19;;;;;;;2.30;1.60;;;;;;;;;;4491689;28;28578;-63
2022/10/19 07:17:29;;;;;;;1.70;1.40;;;;;;;;;;4490597;28;20457;-61
2022/10/19 07:19:40;;;;;;;2.88;1.65;;;;;;;;;;4489338;28;37893;-61
2022/10/19 07:21:51;;;;;;;2.63;1.55;;;;;;;;;;4491561;28;20045;-61
2022/10/19 07:24:01;;;;;;;1.90;1.70;;;;;;;;;;4493192;28;20069;-61
2022/10/19 07:26:25;;;;;;;2.05;1.70;;;;;;;;;;4494152;28;20117;-61
2022/10/19 07:28:36;;;;;;;2.17;1.50;;;;;;;;;;4494120;28;20038;-61
2022/10/19 07:30:46;;;;;;;2.28;1.80;;;;;;;;;;4494275;28;20030;-61
2022/10/19 07:32:57;;;;;;;2.20;1.40;;;;;;;;;;4492821;28;20034;-61
2022/10/19 07:35:07;;;;;;;2.22;1.75;;;;;;;;;;4492189;28;20052;-61
2022/10/19 07:37:18;;;;;;;2.38;1.75;;;;;;;;;;4492129;28;20042;-61
2022/10/19 07:39:28;;;;;;;2.35;1.85;;;;;;;;;;4492530;28;20881;-61
2022/10/19 07:41:39;;;;;;;2.75;1.92;;;;;;;;;;4492632;28;20069;-61
2022/10/19 07:43:50;;;;;;;2.60;1.80;;;;;;;;;;4485018;28;20714;-60
2022/10/19 07:46:03;;;;;;;3.10;1.60;;;;;;;;;;4508309;28;20041;-62
2022/10/19 07:48:13;;;;;;;2.15;1.38;;;;;;;;;;4501018;28;20371;-61
2022/10/19 07:50:26;;;;;;;1.70;1.30;;;;;;;;;;4490722;28;34131;-61
2022/10/19 07:52:36;;;;;;;2.22;1.70;;;;;;;;;;4493668;28;20073;-61
2022/10/19 07:54:48;;;;;;;2.03;1.50;;;;;;;;;;4478466;28;20057;-61
2022/10/19 07:56:58;;;;;;;2.20;1.60;;;;;;;;;;4494571;28;20074;-61
2022/10/19 07:59:09;;;;;;;2.50;1.52;;;;;;;;;;4492413;28;20043;-61
2022/10/19 08:01:22;;;;;;;1.90;1.70;;;;;;;;;;4492286;28;20034;-61
2022/10/19 08:03:33;;;;;;;1.92;1.48;;;;;;;;;;4492454;28;20515;-61
2022/10/19 08:05:43;;;;;;;2.13;1.63;;;;;;;;;;4492600;28;20121;-61
2022/10/19 08:07:54;;;;;;;2.10;1.58;;;;;;;;;;4491322;28;33602;-61
2022/10/19 08:10:05;;;;;;;2.22;1.55;;;;;;;;;;4492787;28;20501;-61
2022/10/19 08:12:16;;;;;;;3.15;1.88;;;;;;;;;;4493690;28;20117;-61
2022/10/19 08:14:26;;;;;;;2.60;1.60;;;;;;;;;;4492075;28;37169;-61
2022/10/19 08:16:39;;;;;;;2.33;1.67;;;;;;;;;;4495054;28;20112;-61
2022/10/19 08:18:50;;;;;;;2.22;1.65;;;;;;;;;;4490486;28;20038;-61
2022/10/19 08:21:01;;;;;;;2.70;1.95;;;;;;;;;;4506772;28;20188;-61
2022/10/19 08:23:12;;;;;;;2.15;1.70;;;;;;;;;;4492911;28;20133;-61
2022/10/19 08:25:22;;;;;;;1.48;1.35;;;;;;;;;;4491448;28;36517;-61
2022/10/19 08:27:33;;;;;;;1.92;1.50;;;;;;;;;;4492207;28;20042;-61
2022/10/19 08:29:43;;;;;;;1.80;1.50;;;;;;;;;;4493305;28;35693;-61
2022/10/19 08:31:53;;;;;;;1.80;1.52;;;;;;;;;;4492696;28;20140;-61
2022/10/19 08:34:04;;;;;;;2.83;1.42;;;;;;;;;;4490912;28;20070;-61
2022/10/19 08:36:15;;;;;;;2.08;1.67;;;;;;;;;;4497815;28;20030;-61
2022/10/19 08:38:26;;;;;;;2.67;1.80;;;;;;;;;;4492884;28;20502;-61
2022/10/19 08:40:36;;;;;;;2.38;1.70;;;;;;;;;;4491965;28;21096;-61
2022/10/19 08:42:53;;;;;;;2.03;1.60;;;;;;;;;;4492110;28;20042;-61
2022/10/19 08:45:17;;;;;;;2.95;1.70;;;;;;;;;;4491950;28;20038;-61
2022/10/19 08:47:50;;;;;;;2.88;1.60;;;;;;;;;;4497208;28;20062;-61
2022/10/19 08:50:00;;;;;;;2.15;1.60;;;;;;;;;;4496528;28;20236;-61
2022/10/19 08:52:18;;;;;;;2.17;1.63;;;;;;;;;;4491568;28;34108;-61
2022/10/19 08:55:03;;;;;;;2.33;1.50;;;;;;;;;;4491698;28;20046;-61
2022/10/19 08:57:30;;;;;;;2.70;1.58;;;;;;;;;;4480176;28;20046;-61
2022/10/19 08:59:48;;;;;;;2.30;1.73;;;;;;;;;;4492033;28;20464;-61
2022/10/19 09:02:03;;;;;;;1.40;1.30;;;;;;;;;;4491121;28;20034;-61
2022/10/19 09:04:23;;;;;;;1.88;1.55;;;;;;;;;;4492421;28;20096;-61
2022/10/19 09:06:56;;;;;;;2.20;1.58;;;;;;;;;;4491859;28;20658;-61
2022/10/19 09:09:11;;;;;;;1.60;1.30;;;;;;;;;;4488340;28;20034;-61
2022/10/19 09:11:24;;;;;;;1.88;1.30;;;;;;;;;;4493127;28;20057;-61
2022/10/19 09:13:42;;;;;;;3.03;1.60;;;;;;;;;;4492025;28;20593;-61
2022/10/19 09:15:54;;;;;;;1.38;1.25;;;;;;;;;;4493762;28;20034;-61
2022/10/19 09:18:09;;;;;;;1.83;1.40;;;;;;;;;;4491140;28;20034;-61
2022/10/19 09:20:32;;;;;;;2.03;1.40;;;;;;;;;;4497214;28;20101;-61
2022/10/19 09:22:43;;;;;;;1.50;1.33;;;;;;;;;;4491133;28;20034;-60
2022/10/19 09:24:58;;;;;;;1.45;1.10;;;;;;;;;;4492675;28;20035;-58
2022/10/19 09:27:36;;;;;;;1.73;1.25;;;;;;;;;;4494339;28;20633;-59
2022/10/19 09:29:52;;;;;;;1.17;1.00;;;;;;;;;;4492168;28;20165;-60
2022/10/19 09:32:09;;;;;;;1.33;1.10;;;;;;;;;;4500421;28;20038;-60
2022/10/19 09:34:24;;;;;;;1.52;1.20;;;;;;;;;;4489983;28;20038;-59
2022/10/19 09:36:40;;;;;;;1.48;1.00;;;;;;;;;;4489850;28;20033;-60
2022/10/19 09:38:50;;;;;;;1.35;0.98;;;;;;;;;;4483297;28;20042;-59
2022/10/19 09:41:17;;;;;;;2.08;0.88;;;;;;;;;;4491852;28;20042;-60
2022/10/19 09:43:29;;;;;;;0.90;0.85;;;;;;;;;;4492376;28;20646;-60
2022/10/19 09:45:56;;;;;;;0.80;0.65;;;;;;;;;;4490131;28;20843;-59
2022/10/19 09:48:16;;;;;;;0.85;0.70;;;;;;;;;;4493714;28;20038;-60
2022/10/19 09:50:29;;;;;;;1.10;0.70;;;;;;;;;;4490954;28;20831;-60
2022/10/19 09:52:40;;;;;;;0.70;0.70;;;;;;;;;;4494109;28;20201;-60
2022/10/19 09:55:00;;;;;;;0.90;0.65;;;;;;;;;;4494302;28;20117;-60
2022/10/19 09:57:19;;;;;;;1.05;0.63;;;;;;;;;;4495916;28;20042;-60
2022/10/19 09:59:33;;;;;;;1.30;0.90;;;;;;;;;;4495838;28;20038;-60
2022/10/19 10:01:44;;;;;;;0.95;0.65;;;;;;;;;;4488819;28;20050;-60
2022/10/19 10:04:07;;;;;;;0.70;0.70;;;;;;;;;;4483386;28;30914;-60
2022/10/19 10:06:20;;;;;;;0.60;0.60;;;;;;;;;;4490279;28;20092;-60
2022/10/19 10:08:36;;;;;;;0.70;0.40;;;;;;;;;;4499531;28;20132;-60
2022/10/19 10:11:12;;;;;;;0.47;0.28;;;;;;;;;;4475823;28;20038;-60
2022/10/19 10:13:23;;;;;;;0.30;0.30;;;;;;;;;;4490220;28;20050;-60
2022/10/19 10:15:42;;;;;;;0.30;0.20;;;;;;;;;;4494291;28;20049;-60
2022/10/19 10:17:54;;;;;;;0.30;0.20;;;;;;;;;;4489359;28;20085;-60
2022/10/19 10:20:18;;;;;;;0.63;0.20;;;;;;;;;;4490858;28;20042;-60
2022/10/19 10:22:31;;;;;;;0.32;0.20;;;;;;;;;;4490301;28;20544;-60
2022/10/19 10:24:51;;;;;;;0.52;0.17;;;;;;;;;;4490832;28;20069;-60
2022/10/19 10:27:04;;;;;;;0.43;0.20;;;;;;;;;;4491504;28;20168;-60
2022/10/19 10:29:50;;;;;;;0.60;0.20;;;;;;;;;;4474208;28;20953;-60
2022/10/19 10:32:14;;;;;;;0.20;0.10;;;;;;;;;;4472751;28;20152;-60
2022/10/19 10:34:28;;;;;;;0.20;0.13;;;;;;;;;;4491463;28;20083;-61
2022/10/19 10:36:38;;;;;;;1.13;0.30;;;;;;;;;;4492052;28;20027;-60
2022/10/19 10:38:51;;;;;;;0.30;0.30;;;;;;;;;;4491765;28;20030;-60
2022/10/19 10:41:06;;;;;;;0.10;0.10;;;;;;;;;;4491394;28;20053;-60
2022/10/19 10:43:20;;;;;;;0.30;0.28;;;;;;;;;;4490687;28;20038;-59
2022/10/19 10:45:40;;;;;;;0.38;0.20;;;;;;;;;;4489762;28;20193;-60
2022/10/19 10:47:51;;;;;;;0.32;0.20;;;;;;;;;;4499433;28;20046;-60
2022/10/19 10:50:05;;;;;;;0.65;0.28;;;;;;;;;;4499312;28;20022;-60
2022/10/19 10:52:17;;;;;;;1.13;0.30;;;;;;;;;;4491297;28;20066;-60
2022/10/19 10:54:32;;;;;;;0.80;0.30;;;;;;;;;;4497827;28;41247;-60
2022/10/19 10:56:44;;;;;;;0.47;0.38;;;;;;;;;;4491654;28;20084;-60
2022/10/19 10:59:05;;;;;;;0.80;0.35;;;;;;;;;;4494198;28;20582;-59
2022/10/19 11:01:19;;;;;;;0.73;0.40;;;;;;;;;;4493084;28;21121;-60
2022/10/19 11:03:32;;;;;;;0.50;0.40;;;;;;;;;;4491131;28;20285;-60
2022/10/19 11:05:49;;;;;;;0.57;0.32;;;;;;;;;;4494153;28;20045;-60
2022/10/19 11:08:23;;;;;;;0.90;0.60;;;;;;;;;;4493871;28;20035;-60
2022/10/19 11:10:38;;;;;;;0.40;0.40;;;;;;;;;;4499509;28;20073;-60
2022/10/19 11:13:21;;;;;;;0.52;0.40;;;;;;;;;;4496171;28;20031;-60
2022/10/19 11:15:51;;;;;;;0.63;0.40;;;;;;;;;;4504537;28;20038;-60
2022/10/19 11:18:33;;;;;;;0.77;0.60;;;;;;;;;;4495929;28;20040;-60
2022/10/19 11:20:52;;;;;;;0.40;0.30;;;;;;;;;;4496133;28;20034;-60
2022/10/19 11:23:12;;;;;;;0.28;0.28;;;;;;;;;;4493455;28;21274;-60
2022/10/19 11:26:02;;;;;;;0.40;0.20;;;;;;;;;;4501827;28;20042;-60
2022/10/19 11:28:21;;;;;;;0.30;0.22;;;;;;;;;;4500782;28;20064;-60
2022/10/19 11:30:36;;;;;;;1.15;0.38;;;;;;;;;;4493570;28;20077;-60
2022/10/19 11:32:57;;;;;;;0.20;0.20;;;;;;;;;;4497132;28;20073;-60
2022/10/19 11:35:19;;;;;;;0.45;0.30;;;;;;;;;;4496800;28;20071;-60
2022/10/19 11:38:03;;;;;;;0.75;0.40;;;;;;;;;;4493416;28;20594;-60
2022/10/19 11:40:26;;;;;;;0.40;0.40;;;;;;;;;;4497653;28;20026;-60
2022/10/19 11:43:01;;;;;;;0.28;0.20;;;;;;;;;;4495782;28;20030;-60
2022/10/19 11:45:27;;;;;;;1.23;0.40;;;;;;;;;;4500843;28;20572;-61
2022/10/19 11:48:28;;;;;;;0.70;0.30;;;;;;;;;;4502082;28;20032;-60
2022/10/19 11:50:54;;;;;;;0.38;0.22;;;;;;;;;;4479584;28;20049;-60
2022/10/19 11:53:09;;;;;;;0.70;0.30;;;;;;;;;;4491432;28;20901;-60
2022/10/19 11:55:42;;;;;;;1.08;0.30;;;;;;;;;;4496095;28;20042;-60
2022/10/19 11:57:58;;;;;;;0.77;0.40;;;;;;;;;;4501727;28;20084;-60
2022/10/19 12:00:17;;;;;;;1.45;0.40;;;;;;;;;;4491750;28;20098;-60
2022/10/19 12:02:40;;;;;;;0.40;0.20;;;;;;;;;;4498837;28;20176;-60
2022/10/19 12:04:56;;;;;;;0.30;0.30;;;;;;;;;;4492577;28;20560;-59
2022/10/19 12:07:28;;;;;;;0.88;0.30;;;;;;;;;;4491672;28;20027;-59
2022/10/19 12:09:57;;;;;;;0.30;0.30;;;;;;;;;;4492847;28;20674;-59
2022/10/19 12:12:24;;;;;;;0.77;0.40;;;;;;;;;;4491676;28;20560;-59
2022/10/19 12:14:39;;;;;;;0.40;0.40;;;;;;;;;;4493551;28;20069;-59
2022/10/19 12:16:55;;;;;;;0.82;0.40;;;;;;;;;;4496676;28;20426;-60
2022/10/19 12:19:11;;;;;;;0.65;0.40;;;;;;;;;;4494094;28;20052;-59
2022/10/19 12:21:32;;;;;;;0.73;0.45;;;;;;;;;;4490574;28;20072;-59
2022/10/19 12:23:45;;;;;;;0.43;0.40;;;;;;;;;;4496499;28;21953;-60
2022/10/19 12:25:57;;;;;;;0.52;0.40;;;;;;;;;;4485363;28;20460;-59
2022/10/19 12:28:11;;;;;;;1.35;0.32;;;;;;;;;;4479231;28;20165;-59
2022/10/19 12:30:23;;;;;;;0.52;0.30;;;;;;;;;;4483616;28;20626;-60
2022/10/19 12:32:42;;;;;;;0.93;0.38;;;;;;;;;;4500158;28;20019;-59
2022/10/19 12:34:56;;;;;;;1.45;0.40;;;;;;;;;;4500898;28;20041;-59
2022/10/19 12:37:33;;;;;;;0.77;0.50;;;;;;;;;;4494462;28;20042;-59
2022/10/19 12:39:59;;;;;;;0.57;0.35;;;;;;;;;;4496723;28;20108;-59
2022/10/19 12:42:12;;;;;;;0.55;0.20;;;;;;;;;;4493373;28;20140;-59
2022/10/19 12:44:41;;;;;;;0.65;0.40;;;;;;;;;;4490817;28;20911;-59
2022/10/19 12:46:59;;;;;;;0.40;0.32;;;;;;;;;;4494028;28;21204;-59
2022/10/19 12:49:24;;;;;;;0.40;0.40;;;;;;;;;;4498247;28;20049;-59
2022/10/19 12:51:45;;;;;;;0.35;0.30;;;;;;;;;;4490737;28;20042;-59
2022/10/19 12:54:07;;;;;;;0.75;0.50;;;;;;;;;;4496923;28;20037;-59
2022/10/19 12:56:24;;;;;;;0.75;0.40;;;;;;;;;;4493832;28;20113;-59
2022/10/19 12:58:46;;;;;;;0.80;0.50;;;;;;;;;;4490474;28;20599;-59
2022/10/19 13:01:02;;;;;;;0.77;0.40;;;;;;;;;;4491521;28;20113;-59
2022/10/19 13:03:16;;;;;;;1.05;0.47;;;;;;;;;;4500550;28;20073;-59
2022/10/19 13:05:28;;;;;;;0.90;0.65;;;;;;;;;;4492614;28;20042;-59
2022/10/19 13:07:38;;;;;;;0.40;0.40;;;;;;;;;;4490240;28;21311;-59
2022/10/19 13:09:48;;;;;;;0.50;0.50;;;;;;;;;;4492757;28;32083;-59
2022/10/19 13:12:14;;;;;;;0.60;0.50;;;;;;;;;;4490855;28;20041;-59
2022/10/19 13:14:47;;;;;;;0.75;0.50;;;;;;;;;;4491456;28;20035;-59
2022/10/19 13:16:59;;;;;;;0.50;0.40;;;;;;;;;;4492837;28;21184;-59
2022/10/19 13:19:12;;;;;;;0.50;0.45;;;;;;;;;;4499590;28;20022;-59
2022/10/19 13:21:46;;;;;;;0.60;0.40;;;;;;;;;;4492865;28;20042;-59
2022/10/19 13:24:24;;;;;;;1.35;0.50;;;;;;;;;;4490063;28;20077;-60
2022/10/19 13:26:35;;;;;;;0.93;0.40;;;;;;;;;;4491892;28;20040;-59
2022/10/19 13:28:51;;;;;;;0.50;0.50;;;;;;;;;;4496927;28;20491;-59
2022/10/19 13:31:02;;;;;;;0.82;0.40;;;;;;;;;;4482666;28;20034;-59